createdAt,value
2022-08-16T00:01:26.524Z,56.28
2022-08-16T00:04:05.149Z,56.32
2022-08-16T00:06:34.233Z,56.84
2022-08-16T00:09:06.863Z,57.07
2022-08-16T00:11:35.869Z,57.13
2022-08-16T00:14:09.166Z,57.24
2022-08-16T00:17:00.824Z,57.77
2022-08-16T00:19:28.864Z,57.87
2022-08-16T00:22:13.800Z,58.27
2022-08-16T00:24:46.778Z,58.48
2022-08-16T00:27:17.441Z,58.60
2022-08-16T00:29:46.088Z,59.02
2022-08-16T00:32:18.173Z,59.22
2022-08-16T00:34:52.897Z,59.05
2022-08-16T00:37:56.330Z,58.71
2022-08-16T00:40:34.604Z,58.18
2022-08-16T00:43:12.030Z,57.63
2022-08-16T00:45:58.081Z,57.08
2022-08-16T00:48:44.187Z,57.70
2022-08-16T00:51:17.497Z,58.11
2022-08-16T00:53:46.982Z,57.90
2022-08-16T00:56:55.872Z,57.94
2022-08-16T00:59:11.255Z,57.90
2022-08-16T01:01:45.153Z,58.22
2022-08-16T01:04:29.585Z,58.19
2022-08-16T01:07:02.066Z,58.81
2022-08-16T01:09:33.826Z,58.84
2022-08-16T01:12:08.768Z,59.03
2022-08-16T01:14:45.223Z,58.96
2022-08-16T01:17:17.232Z,58.97
2022-08-16T01:19:49.766Z,59.25
2022-08-16T01:22:49.884Z,59.43
2022-08-16T01:25:22.305Z,59.68
2022-08-16T01:27:54.509Z,59.64
2022-08-16T01:30:26.730Z,59.71
2022-08-16T01:33:02.316Z,59.89
2022-08-16T01:35:52.607Z,60.04
2022-08-16T01:38:28.039Z,60.25
2022-08-16T01:41:01.890Z,60.38
2022-08-16T01:43:32.361Z,60.57
2022-08-16T01:46:37.978Z,60.48
2022-08-16T01:48:56.309Z,60.46
2022-08-16T01:51:27.120Z,60.87
2022-08-16T01:53:57.679Z,61.17
2022-08-16T01:56:32.976Z,61.18
2022-08-16T01:59:06.966Z,61.22
2022-08-16T02:01:49.754Z,61.27
2022-08-16T02:04:40.026Z,61.41
2022-08-16T02:07:13.479Z,61.33
2022-08-16T02:09:42.569Z,61.40
2022-08-16T02:12:50.481Z,61.33
2022-08-16T02:15:25.248Z,61.56
2022-08-16T02:17:55.410Z,61.65
2022-08-16T02:20:26.494Z,61.61
2022-08-16T02:22:57.532Z,61.56
2022-08-16T02:25:52.235Z,61.17
2022-08-16T02:28:19.178Z,61.48
2022-08-16T02:30:51.049Z,61.55
2022-08-16T02:33:24.871Z,61.56
2022-08-16T02:36:14.626Z,61.52
2022-08-16T02:39:01.872Z,61.83
2022-08-16T02:41:30.186Z,61.92
2022-08-16T02:44:01.224Z,62.11
2022-08-16T02:46:30.170Z,62.21
2022-08-16T02:49:03.145Z,62.07
2022-08-16T02:51:35.662Z,62.09
2022-08-16T02:54:05.301Z,62.25
2022-08-16T02:56:35.668Z,61.99
2022-08-16T02:59:11.513Z,61.58
2022-08-16T03:01:43.320Z,61.83
2022-08-16T03:04:41.132Z,61.98
2022-08-16T03:07:10.715Z,61.93
2022-08-16T03:09:44.632Z,62.27
2022-08-16T03:12:17.948Z,62.27
2022-08-16T03:14:49.383Z,62.59
2022-08-16T03:17:21.948Z,62.94
2022-08-16T03:20:02.396Z,62.95
2022-08-16T03:22:38.996Z,63.05
2022-08-16T03:25:17.350Z,63.02
2022-08-16T03:27:56.810Z,62.40
2022-08-16T03:30:32.916Z,62.20
2022-08-16T03:33:05.569Z,62.62
2022-08-16T03:35:41.863Z,62.47
2022-08-16T03:38:34.029Z,63.02
2022-08-16T03:41:25.760Z,63.20
2022-08-16T03:44:00.021Z,63.44
2022-08-16T03:46:47.749Z,63.29
2022-08-16T03:49:36.505Z,63.43
2022-08-16T03:52:07.808Z,63.37
2022-08-16T03:54:38.173Z,63.41
2022-08-16T03:57:22.378Z,63.86
2022-08-16T03:59:51.547Z,64.10
2022-08-16T04:02:31.564Z,64.02
2022-08-16T04:05:04.113Z,64.11
2022-08-16T04:07:33.787Z,63.99
2022-08-16T04:10:35.550Z,63.95
2022-08-16T04:12:59.426Z,64.10
2022-08-16T04:15:30.925Z,64.39
2022-08-16T04:18:21.089Z,64.42
2022-08-16T04:20:51.307Z,64.81
2022-08-16T04:23:23.575Z,64.85
2022-08-16T04:25:55.053Z,64.86
2022-08-16T04:28:52.068Z,65.08
2022-08-16T04:31:14.005Z,65.19
2022-08-16T04:33:51.201Z,65.29
2022-08-16T04:36:23.125Z,65.15
2022-08-16T04:38:52.565Z,64.66
2022-08-16T04:41:32.892Z,64.75
2022-08-16T04:44:32.699Z,64.99
2022-08-16T04:47:02.706Z,65.12
2022-08-16T04:49:43.598Z,65.30
2022-08-16T04:52:34.213Z,65.55
2022-08-16T04:55:06.296Z,65.59
2022-08-16T04:57:37.691Z,65.69
2022-08-16T05:00:30.424Z,65.67
2022-08-16T05:03:02.640Z,65.75
2022-08-16T05:05:55.395Z,65.31
2022-08-16T05:08:31.080Z,65.37
2022-08-16T05:11:08.500Z,65.50
2022-08-16T05:13:42.109Z,65.64
2022-08-16T05:16:21.375Z,65.53
2022-08-16T05:18:58.931Z,65.69
2022-08-16T05:21:35.965Z,65.68
2022-08-16T05:24:09.087Z,65.42
2022-08-16T05:26:43.031Z,65.32
2022-08-16T05:29:14.712Z,65.36
2022-08-16T05:31:57.074Z,65.65
2022-08-16T05:34:25.382Z,65.62
2022-08-16T05:36:58.813Z,65.85
2022-08-16T05:39:37.626Z,65.69
2022-08-16T05:42:10.369Z,65.46
2022-08-16T05:44:41.332Z,64.97
2022-08-16T05:47:15.293Z,64.40
2022-08-16T05:49:46.404Z,63.51
2022-08-16T05:52:21.512Z,63.03
2022-08-16T05:55:01.062Z,63.04
2022-08-16T05:57:34.370Z,62.87
2022-08-16T06:00:08.796Z,62.70
2022-08-16T06:02:47.424Z,62.47
2022-08-16T06:05:41.417Z,62.36
2022-08-16T06:08:32.059Z,62.24
2022-08-16T06:11:10.157Z,61.93
2022-08-16T06:13:42.951Z,62.02
2022-08-16T06:16:18.316Z,61.52
2022-08-16T06:18:49.269Z,61.15
2022-08-16T06:21:22.928Z,61.06
2022-08-16T06:24:01.254Z,61.01
2022-08-16T06:26:36.871Z,60.12
2022-08-16T06:29:07.694Z,59.12
2022-08-16T06:31:46.864Z,57.97
2022-08-16T06:34:54.890Z,55.90
2022-08-16T06:37:10.331Z,52.40
2022-08-16T06:39:49.663Z,50.37
2022-08-16T06:42:47.562Z,48.54
2022-08-16T06:45:47.605Z,46.14
2022-08-16T06:48:33.067Z,44.31
2022-08-16T06:51:04.719Z,42.44
2022-08-16T06:53:36.654Z,41.46
2022-08-16T06:56:14.407Z,40.28
2022-08-16T06:59:10.251Z,39.74
2022-08-16T07:01:53.439Z,38.43
2022-08-16T07:04:33.052Z,37.64
2022-08-16T07:07:14.683Z,37.70
2022-08-16T07:09:44.169Z,36.98
2022-08-16T07:12:15.424Z,35.96
2022-08-16T07:14:47.944Z,35.34
2022-08-16T07:17:19.647Z,34.21
2022-08-16T07:20:29.625Z,34.33
2022-08-16T07:22:59.003Z,33.35
2022-08-16T07:25:42.374Z,33.76
2022-08-16T07:28:20.700Z,33.19
2022-08-16T07:30:50.458Z,33.13
2022-08-16T07:33:52.712Z,32.86
2022-08-16T07:36:21.879Z,33.13
2022-08-16T07:38:51.781Z,32.19
2022-08-16T07:41:21.215Z,31.49
2022-08-16T07:44:03.844Z,32.15
2022-08-16T07:46:46.093Z,32.05
2022-08-16T07:49:21.185Z,31.72
2022-08-16T07:51:50.126Z,31.93
2022-08-16T07:54:32.436Z,31.89
2022-08-16T07:57:11.813Z,31.53
2022-08-16T07:59:45.959Z,32.22
2022-08-16T08:02:20.281Z,32.45
2022-08-16T08:04:54.110Z,33.17
2022-08-16T08:07:27.642Z,33.05
2022-08-16T08:09:57.465Z,33.95
2022-08-16T08:12:31.857Z,33.77
2022-08-16T08:15:09.704Z,33.58
2022-08-16T08:17:43.319Z,34.29
2022-08-16T08:20:20.854Z,34.41
2022-08-16T08:23:00.902Z,34.42
2022-08-16T08:25:55.172Z,34.82
2022-08-16T08:28:26.721Z,34.55
2022-08-16T08:31:03.984Z,34.03
2022-08-16T08:33:38.293Z,34.25
2022-08-16T08:36:22.014Z,34.84
2022-08-16T08:38:53.542Z,35.09
2022-08-16T08:41:28.472Z,34.40
2022-08-16T08:43:58.452Z,35.16
2022-08-16T08:46:29.218Z,35.37
2022-08-16T08:49:08.735Z,35.26
2022-08-16T08:51:42.409Z,34.46
2022-08-16T08:54:20.570Z,35.14
2022-08-16T08:56:53.007Z,34.67
2022-08-16T08:59:28.919Z,34.71
2022-08-16T09:02:03.215Z,34.42
2022-08-16T09:04:40.049Z,34.52
2022-08-16T09:07:08.896Z,34.38
2022-08-16T09:09:41.166Z,33.89
2022-08-16T09:12:35.900Z,33.71
2022-08-16T09:15:13.719Z,33.70
2022-08-16T09:17:51.385Z,33.09
2022-08-16T09:20:24.410Z,33.38
2022-08-16T09:22:57.354Z,32.91
2022-08-16T09:25:55.785Z,33.37
2022-08-16T09:29:13.471Z,32.66
2022-08-16T09:31:20.308Z,32.42
2022-08-16T09:33:51.793Z,32.26
2022-08-16T09:36:32.061Z,31.74
2022-08-16T09:39:03.473Z,30.05
2022-08-16T09:41:32.583Z,30.26
2022-08-16T09:45:10.846Z,30.42
2022-08-16T09:46:57.476Z,31.30
2022-08-16T09:49:37.294Z,30.87
2022-08-16T09:52:06.279Z,30.61
2022-08-16T09:54:39.079Z,30.46
2022-08-16T09:57:13.283Z,29.19
2022-08-16T09:59:42.299Z,29.18
2022-08-16T10:02:23.059Z,29.53
2022-08-16T10:04:58.054Z,28.86
2022-08-16T10:07:26.857Z,28.44
2022-08-16T10:10:13.453Z,27.28
2022-08-16T10:13:05.043Z,27.56
2022-08-16T10:15:34.393Z,27.58
2022-08-16T10:18:56.125Z,27.53
2022-08-16T10:20:53.122Z,26.41
2022-08-16T10:23:26.024Z,27.20
2022-08-16T10:27:17.691Z,27.22
2022-08-16T10:28:45.578Z,27.15
2022-08-16T10:31:45.595Z,26.77
2022-08-16T10:34:30.701Z,26.83
2022-08-16T10:36:58.394Z,26.67
2022-08-16T10:39:26.969Z,27.20
2022-08-16T10:42:09.812Z,27.17
2022-08-16T10:44:38.121Z,27.42
2022-08-16T10:47:07.400Z,27.43
2022-08-16T10:49:37.112Z,26.95
2022-08-16T10:52:18.225Z,26.91
2022-08-16T10:57:36.045Z,26.95
2022-08-16T11:00:21.256Z,27.34
2022-08-16T11:03:00.463Z,27.79
2022-08-16T11:08:28.312Z,28.00
2022-08-16T11:11:12.964Z,27.62
2022-08-16T11:14:11.223Z,27.61
2022-08-16T11:19:26.255Z,28.29
2022-08-16T11:22:39.691Z,27.53
2022-08-16T11:25:11.496Z,26.92
2022-08-16T11:27:36.604Z,27.11
2022-08-16T11:30:09.161Z,28.30
2022-08-16T11:32:41.139Z,28.91
2022-08-16T11:35:14.984Z,29.10
2022-08-16T11:40:40.834Z,28.52
2022-08-16T11:43:16.894Z,28.58
2022-08-16T11:45:54.245Z,28.54
2022-08-16T11:48:24.932Z,29.01
2022-08-16T11:50:53.276Z,29.45
2022-08-16T11:53:22.234Z,28.86
2022-08-16T11:55:54.983Z,27.01
2022-08-16T11:58:24.759Z,26.33
2022-08-16T12:00:56.070Z,26.77
2022-08-16T12:03:34.744Z,27.03
2022-08-16T12:06:10.892Z,26.72
2022-08-16T12:08:40.330Z,27.34
2022-08-16T12:11:11.492Z,26.89
2022-08-16T12:13:40.767Z,26.56
2022-08-16T12:16:10.468Z,26.45
2022-08-16T12:18:40.611Z,25.97
2022-08-16T12:21:09.826Z,25.82
2022-08-16T12:23:39.344Z,26.18
2022-08-16T12:26:10.398Z,26.23
2022-08-16T12:28:54.600Z,25.13
2022-08-16T12:31:25.257Z,25.52
2022-08-16T12:33:54.155Z,25.53
2022-08-16T12:36:23.814Z,25.95
2022-08-16T12:38:53.081Z,25.79
2022-08-16T12:41:25.024Z,25.67
2022-08-16T12:43:56.900Z,25.82
2022-08-16T12:46:27.467Z,25.66
2022-08-16T12:48:58.346Z,26.44
2022-08-16T12:51:33.034Z,27.08
2022-08-16T12:54:20.601Z,27.28
2022-08-16T12:56:50.478Z,26.58
2022-08-16T12:59:22.008Z,26.63
2022-08-16T13:01:58.316Z,26.86
2022-08-16T13:04:31.396Z,27.11
2022-08-16T13:07:04.613Z,26.53
2022-08-16T13:09:45.661Z,26.44
2022-08-16T13:12:20.990Z,26.60
2022-08-16T13:14:52.199Z,26.55
2022-08-16T13:17:26.249Z,26.50
2022-08-16T13:20:07.002Z,26.88
2022-08-16T13:22:36.642Z,26.89
2022-08-16T13:25:07.156Z,26.95
2022-08-16T13:28:03.206Z,26.91
2022-08-16T13:30:36.221Z,27.40
2022-08-16T13:33:12.235Z,27.65
2022-08-16T13:35:44.034Z,27.52
2022-08-16T13:38:24.331Z,27.72
2022-08-16T13:40:56.068Z,27.96
2022-08-16T13:43:26.680Z,27.68
2022-08-16T13:45:57.424Z,27.83
2022-08-16T13:48:37.042Z,28.34
2022-08-16T13:51:16.605Z,28.56
2022-08-16T13:53:54.750Z,28.96
2022-08-16T13:56:38.215Z,29.37
2022-08-16T13:59:20.027Z,29.88
2022-08-16T14:01:55.641Z,30.08
2022-08-16T14:04:26.665Z,30.22
2022-08-16T14:06:56.800Z,31.29
2022-08-16T14:09:27.011Z,30.82
2022-08-16T14:11:58.097Z,31.48
2022-08-16T14:14:30.141Z,31.59
2022-08-16T14:17:02.928Z,31.89
2022-08-16T14:19:31.761Z,32.76
2022-08-16T14:22:15.092Z,33.41
2022-08-16T14:24:47.512Z,33.95
2022-08-16T14:27:17.982Z,33.47
2022-08-16T14:29:49.305Z,34.18
2022-08-16T14:32:27.230Z,34.99
2022-08-16T14:35:04.141Z,35.41
2022-08-16T14:37:32.781Z,35.65
2022-08-16T14:40:03.975Z,35.84
2022-08-16T14:42:36.710Z,35.90
2022-08-16T14:45:06.602Z,36.21
2022-08-16T14:47:38.394Z,35.74
2022-08-16T14:50:09.409Z,35.99
2022-08-16T14:52:56.053Z,35.44
2022-08-16T14:55:26.037Z,34.83
2022-08-16T14:57:55.178Z,34.81
2022-08-16T15:00:33.270Z,34.61
2022-08-16T15:03:09.485Z,33.29
2022-08-16T15:05:39.904Z,32.56
2022-08-16T15:08:08.586Z,33.65
2022-08-16T15:10:42.751Z,33.42
2022-08-16T15:13:15.384Z,33.88
2022-08-16T15:15:51.499Z,34.56
2022-08-16T15:18:31.518Z,35.62
2022-08-16T15:21:01.921Z,36.19
2022-08-16T15:23:33.991Z,36.64
2022-08-16T15:26:08.265Z,37.18
2022-08-16T15:28:38.427Z,37.28
2022-08-16T15:31:09.231Z,38.59
2022-08-16T15:33:45.413Z,38.73
2022-08-16T15:36:21.427Z,38.71
2022-08-16T15:38:57.786Z,39.15
2022-08-16T15:42:03.359Z,39.66
2022-08-16T15:44:51.877Z,40.12
2022-08-16T15:47:25.093Z,40.12
2022-08-16T15:49:57.936Z,40.28
2022-08-16T15:52:30.266Z,40.38
2022-08-16T15:55:13.353Z,40.59
2022-08-16T15:57:51.302Z,41.17
2022-08-16T16:00:21.246Z,40.57
2022-08-16T16:02:50.087Z,40.91
2022-08-16T16:05:20.132Z,40.84
2022-08-16T16:07:55.652Z,41.44
2022-08-16T16:10:29.589Z,41.44
2022-08-16T16:13:00.899Z,41.05
2022-08-16T16:15:31.999Z,41.63
2022-08-16T16:18:05.302Z,41.70
2022-08-16T16:20:43.903Z,41.55
2022-08-16T16:23:14.669Z,42.25
2022-08-16T16:25:44.843Z,42.87
2022-08-16T16:29:06.100Z,43.00
2022-08-16T16:31:06.415Z,43.39
2022-08-16T16:33:38.502Z,43.59
2022-08-16T16:36:12.679Z,43.39
2022-08-16T16:38:45.364Z,43.78
2022-08-16T16:41:14.858Z,44.01
2022-08-16T16:43:45.657Z,45.07
2022-08-16T16:46:39.242Z,45.67
2022-08-16T16:49:07.446Z,45.94
2022-08-16T16:51:44.472Z,46.23
2022-08-16T16:54:14.017Z,46.73
2022-08-16T16:56:58.760Z,47.17
2022-08-16T16:59:28.061Z,47.65
2022-08-16T17:02:38.238Z,48.18
2022-08-16T17:04:47.316Z,49.24
2022-08-16T17:07:17.391Z,49.33
2022-08-16T17:09:47.460Z,49.42
2022-08-16T17:12:24.974Z,49.32
2022-08-16T17:15:07.557Z,49.79
2022-08-16T17:17:59.431Z,49.96
2022-08-16T17:20:27.463Z,49.93
2022-08-16T17:22:59.293Z,50.41
2022-08-16T17:25:36.431Z,50.45
2022-08-16T17:28:58.774Z,50.75
2022-08-16T17:30:55.116Z,51.55
2022-08-16T17:33:23.359Z,51.71
2022-08-16T17:35:56.122Z,51.77
2022-08-16T17:38:33.031Z,51.91
2022-08-16T17:41:18.245Z,52.54
2022-08-16T17:43:46.870Z,52.90
2022-08-16T17:46:50.089Z,52.86
2022-08-16T17:49:06.595Z,53.22
2022-08-16T17:51:35.324Z,53.39
2022-08-16T17:54:05.150Z,53.51
2022-08-16T17:56:34.573Z,54.00
2022-08-16T17:59:03.162Z,53.87
2022-08-16T18:01:31.781Z,54.36
2022-08-16T18:04:08.300Z,54.66
2022-08-16T18:06:38.167Z,54.47
2022-08-16T18:09:09.081Z,54.87
2022-08-16T18:11:43.150Z,54.97
2022-08-16T18:14:16.393Z,54.78
2022-08-16T18:16:46.264Z,55.01
2022-08-16T18:19:15.656Z,55.05
2022-08-16T18:22:02.057Z,54.92
2022-08-16T18:24:31.809Z,55.06
2022-08-16T18:27:25.008Z,55.33
2022-08-16T18:29:51.208Z,55.53
2022-08-16T18:32:21.947Z,55.66
2022-08-16T18:34:54.329Z,55.80
2022-08-16T18:37:23.173Z,56.04
2022-08-16T18:39:53.087Z,56.11
2022-08-16T18:42:22.506Z,56.23
2022-08-16T18:44:50.808Z,56.04
2022-08-16T18:47:19.125Z,56.04
2022-08-16T18:49:47.573Z,56.37
2022-08-16T18:52:25.464Z,56.31
2022-08-16T18:55:01.702Z,56.52
2022-08-16T18:57:31.556Z,56.65
2022-08-16T18:59:59.871Z,56.47
2022-08-16T19:02:56.828Z,56.41
2022-08-16T19:05:23.324Z,56.42
2022-08-16T19:07:52.711Z,56.61
2022-08-16T19:10:22.846Z,56.35
2022-08-16T19:12:51.213Z,56.37
2022-08-16T19:15:22.610Z,56.16
2022-08-16T19:17:50.968Z,55.92
2022-08-16T19:20:21.480Z,55.82
2022-08-16T19:23:10.265Z,55.93
2022-08-16T19:25:49.127Z,56.11
2022-08-16T19:28:49.360Z,50.03
2022-08-16T19:31:14.955Z,44.61
2022-08-16T19:33:53.395Z,45.15
2022-08-16T19:36:31.396Z,46.21
2022-08-16T19:39:05.213Z,47.78
2022-08-16T19:41:36.885Z,49.01
2022-08-16T19:44:06.792Z,49.72
2022-08-16T19:46:35.854Z,50.73
2022-08-16T19:49:05.981Z,51.05
2022-08-16T19:51:34.427Z,51.47
2022-08-16T19:54:02.914Z,51.69
2022-08-16T19:56:31.449Z,51.78
2022-08-16T19:59:18.590Z,52.17
2022-08-16T20:01:49.506Z,52.67
2022-08-16T20:04:18.125Z,52.81
2022-08-16T20:06:46.989Z,53.85
2022-08-16T20:09:15.900Z,56.21
2022-08-16T20:11:45.229Z,58.50
2022-08-16T20:14:24.616Z,59.49
2022-08-16T20:16:56.201Z,60.15
2022-08-16T20:19:25.034Z,61.19
2022-08-16T20:22:00.995Z,62.86
2022-08-16T20:24:35.293Z,63.59
2022-08-16T20:27:06.471Z,64.27
2022-08-16T20:29:37.746Z,64.74
2022-08-16T20:32:07.812Z,64.54
2022-08-16T20:34:37.111Z,64.91
2022-08-16T20:37:06.495Z,65.40
2022-08-16T20:39:35.068Z,65.04
2022-08-16T20:42:03.381Z,65.28
2022-08-16T20:44:32.156Z,65.29
2022-08-16T20:47:02.219Z,65.58
2022-08-16T20:49:30.708Z,66.28
2022-08-16T20:51:59.830Z,66.77
2022-08-16T20:54:29.582Z,67.21
2022-08-16T20:56:58.589Z,67.06
2022-08-16T20:59:27.120Z,67.66
2022-08-16T21:01:55.871Z,67.97
2022-08-16T21:04:29.179Z,67.61
2022-08-16T21:06:58.497Z,66.87
2022-08-16T21:09:29.629Z,66.33
2022-08-16T21:12:00.964Z,66.83
2022-08-16T21:14:29.790Z,67.32
2022-08-16T21:16:58.095Z,67.49
2022-08-16T21:19:27.765Z,67.39
2022-08-16T21:21:56.398Z,67.29
2022-08-16T21:24:26.491Z,67.22
2022-08-16T21:26:56.249Z,68.55
2022-08-16T21:29:42.744Z,69.06
2022-08-16T21:32:13.760Z,68.17
2022-08-16T21:34:43.661Z,68.23
2022-08-16T21:37:15.625Z,68.54
2022-08-16T21:39:45.094Z,69.10
2022-08-16T21:42:15.871Z,68.72
2022-08-16T21:44:45.313Z,68.41
2022-08-16T21:47:13.779Z,68.19
2022-08-16T21:49:43.507Z,68.06
2022-08-16T21:52:26.370Z,69.15
2022-08-16T21:54:58.219Z,68.88
2022-08-16T21:57:27.837Z,68.89
2022-08-16T22:00:08.288Z,69.22
2022-08-16T22:02:40.018Z,69.36
2022-08-16T22:05:11.627Z,68.56
2022-08-16T22:07:42.186Z,68.01
2022-08-16T22:11:05.190Z,67.82
2022-08-16T22:13:01.637Z,67.61
2022-08-16T22:15:30.569Z,67.90
2022-08-16T22:18:01.721Z,67.76
2022-08-16T22:20:31.637Z,68.38
2022-08-16T22:23:08.036Z,68.08
2022-08-16T22:25:36.805Z,68.23
2022-08-16T22:28:06.375Z,68.75
2022-08-16T22:30:35.077Z,69.63
2022-08-16T22:33:09.612Z,70.01
2022-08-16T22:35:44.280Z,69.43
2022-08-16T22:38:55.781Z,69.91
2022-08-16T22:41:05.470Z,69.92
2022-08-16T22:43:34.759Z,69.48
2022-08-16T22:46:03.083Z,69.22
2022-08-16T22:48:32.612Z,69.12
2022-08-16T22:51:09.156Z,68.51
2022-08-16T22:53:38.801Z,68.68
2022-08-16T22:56:07.462Z,69.43
2022-08-16T22:58:36.991Z,69.85
2022-08-16T23:01:08.785Z,68.98
2022-08-16T23:03:39.773Z,69.01
2022-08-16T23:06:12.244Z,69.00
2022-08-16T23:08:45.862Z,69.53
2022-08-16T23:11:21.179Z,69.26
2022-08-16T23:13:53.403Z,69.68
2022-08-16T23:16:32.430Z,68.71
2022-08-16T23:19:02.513Z,68.83
2022-08-16T23:21:32.829Z,69.42
2022-08-16T23:24:01.336Z,69.34
2022-08-16T23:26:46.980Z,69.48
2022-08-16T23:29:24.451Z,69.51
2022-08-16T23:32:00.250Z,69.29
2022-08-16T23:34:29.556Z,69.84
2022-08-16T23:36:59.320Z,69.51
2022-08-16T23:39:27.840Z,69.48
2022-08-16T23:41:56.180Z,70.33
2022-08-16T23:44:56.477Z,70.13
2022-08-16T23:47:13.313Z,70.88
2022-08-16T23:49:58.438Z,70.90
2022-08-16T23:52:45.192Z,70.36
2022-08-16T23:55:20.780Z,70.29
2022-08-16T23:57:49.691Z,70.80
